createdAt,value
2023-05-01T00:01:13.381Z,10.40
2023-05-01T00:04:02.096Z,11.40
2023-05-01T00:06:52.275Z,11.50
2023-05-01T00:09:40.893Z,10.00
2023-05-01T00:12:29.461Z,10.60
2023-05-01T00:15:18.178Z,10.80
2023-05-01T00:18:06.687Z,11.40
2023-05-01T00:20:55.209Z,9.67
2023-05-01T00:23:45.027Z,11.10
2023-05-01T00:26:33.515Z,10.23
2023-05-01T00:29:21.968Z,10.80
2023-05-01T00:32:10.607Z,10.80
2023-05-01T00:34:59.260Z,10.30
2023-05-01T00:37:48.087Z,10.90
2023-05-01T00:40:44.263Z,10.70
2023-05-01T00:43:32.751Z,11.87
2023-05-01T00:46:21.726Z,11.70
2023-05-01T00:49:10.733Z,11.67
2023-05-01T00:51:59.542Z,11.53
2023-05-01T00:54:52.003Z,11.60
2023-05-01T00:57:41.975Z,11.07
2023-05-01T01:00:31.044Z,11.60
2023-05-01T01:03:19.714Z,11.00
2023-05-01T01:06:11.637Z,11.13
2023-05-01T01:09:08.169Z,10.80
2023-05-01T01:12:04.742Z,10.47
2023-05-01T01:15:00.459Z,10.30
2023-05-01T01:17:53.880Z,10.93
2023-05-01T01:20:46.403Z,10.70
2023-05-01T01:23:45.604Z,10.50
2023-05-01T01:27:02.270Z,9.60
2023-05-01T01:30:19.910Z,10.33
2023-05-01T01:33:56.054Z,9.70
2023-05-01T01:36:50.540Z,10.10
2023-05-01T01:39:45.244Z,10.67
2023-05-01T01:42:37.799Z,10.73
2023-05-01T01:45:31.569Z,10.70
2023-05-01T01:48:24.911Z,11.50
2023-05-01T01:51:17.255Z,10.20
2023-05-01T01:54:07.813Z,10.37
2023-05-01T01:56:56.603Z,9.90
2023-05-01T01:59:45.593Z,10.10
2023-05-01T02:02:34.195Z,10.10
2023-05-01T02:05:23.567Z,9.50
2023-05-01T02:08:12.780Z,10.10
2023-05-01T02:11:03.174Z,10.47
2023-05-01T02:13:52.513Z,9.67
2023-05-01T02:16:41.274Z,10.03
2023-05-01T02:19:29.857Z,10.30
2023-05-01T02:22:18.916Z,9.97
2023-05-01T02:25:08.620Z,10.70
2023-05-01T02:28:01.255Z,11.03
2023-05-01T02:30:49.816Z,10.23
2023-05-01T02:33:38.331Z,10.23
2023-05-01T02:36:27.723Z,10.83
2023-05-01T02:39:16.214Z,11.20
2023-05-01T02:42:05.739Z,10.37
2023-05-01T02:44:59.288Z,10.80
2023-05-01T02:47:50.804Z,9.10
2023-05-01T02:50:40.707Z,10.20
2023-05-01T02:53:29.211Z,10.80
2023-05-01T02:56:17.767Z,10.07
2023-05-01T02:59:06.600Z,10.10
2023-05-01T03:01:56.422Z,10.57
2023-05-01T03:04:45.036Z,10.17
2023-05-01T03:07:35.272Z,10.93
2023-05-01T03:10:23.868Z,9.60
2023-05-01T03:13:12.544Z,10.20
2023-05-01T03:16:01.336Z,10.47
2023-05-01T03:18:51.180Z,10.03
2023-05-01T03:21:39.647Z,9.90
2023-05-01T03:24:28.254Z,10.20
2023-05-01T03:27:16.703Z,10.73
2023-05-01T03:30:05.980Z,10.43
2023-05-01T03:32:55.134Z,10.60
2023-05-01T03:35:45.038Z,10.30
2023-05-01T03:38:34.076Z,10.63
2023-05-01T03:41:22.629Z,10.80
2023-05-01T03:44:11.037Z,10.60
2023-05-01T03:46:59.490Z,11.60
2023-05-01T03:49:47.981Z,10.30
2023-05-01T03:52:37.902Z,10.27
2023-05-01T03:55:26.702Z,11.10
2023-05-01T03:58:15.159Z,10.90
2023-05-01T04:01:03.764Z,10.57
2023-05-01T04:03:52.424Z,11.77
2023-05-01T04:06:41.164Z,11.60
2023-05-01T04:09:31.154Z,11.67
2023-05-01T04:12:19.723Z,11.10
2023-05-01T04:15:09.858Z,12.50
2023-05-01T04:17:58.343Z,11.83
2023-05-01T04:20:46.950Z,10.60
2023-05-01T04:23:35.381Z,10.20
2023-05-01T04:26:25.199Z,10.90
2023-05-01T04:29:13.645Z,11.30
2023-05-01T04:32:02.177Z,11.13
2023-05-01T04:34:50.673Z,11.80
2023-05-01T04:37:39.154Z,12.03
2023-05-01T04:40:27.619Z,11.07
2023-05-01T04:43:17.405Z,11.13
2023-05-01T04:46:06.089Z,12.13
2023-05-01T04:48:54.564Z,10.93
2023-05-01T04:51:43.080Z,11.87
2023-05-01T04:54:31.741Z,11.73
2023-05-01T04:57:20.200Z,10.77
2023-05-01T05:00:11.255Z,11.40
2023-05-01T05:02:59.862Z,11.23
2023-05-01T05:05:48.424Z,11.50
2023-05-01T05:08:36.885Z,11.50
2023-05-01T05:11:26.405Z,11.30
2023-05-01T05:14:14.896Z,11.87
2023-05-01T05:17:04.706Z,11.50
2023-05-01T05:19:53.307Z,10.83
2023-05-01T05:22:41.890Z,11.03
2023-05-01T05:25:30.381Z,10.00
2023-05-01T05:28:18.914Z,10.60
2023-05-01T05:31:07.417Z,10.43
2023-05-01T05:33:57.242Z,11.03
2023-05-01T05:36:45.708Z,10.70
2023-05-01T05:39:34.204Z,9.50
2023-05-01T05:42:22.686Z,10.40
2023-05-01T05:45:11.805Z,9.60
2023-05-01T05:48:00.356Z,10.53
2023-05-01T05:50:51.019Z,9.50
2023-05-01T05:53:39.525Z,8.70
2023-05-01T05:56:27.970Z,9.27
2023-05-01T05:59:17.619Z,9.80
2023-05-01T06:02:06.188Z,8.23
2023-05-01T06:04:54.676Z,9.50
2023-05-01T06:07:44.557Z,9.00
2023-05-01T06:10:33.039Z,9.13
2023-05-01T06:13:21.470Z,8.80
2023-05-01T06:16:10.075Z,9.13
2023-05-01T06:18:58.595Z,10.80
2023-05-01T06:21:47.079Z,8.10
2023-05-01T06:24:37.519Z,9.20
2023-05-01T06:27:26.007Z,8.60
2023-05-01T06:30:14.598Z,8.80
2023-05-01T06:33:03.282Z,8.53
2023-05-01T06:35:52.098Z,8.97
2023-05-01T06:38:41.457Z,8.93
2023-05-01T06:41:32.602Z,8.53
2023-05-01T06:44:21.036Z,8.03
2023-05-01T06:47:09.717Z,8.23
2023-05-01T06:49:58.374Z,8.43
2023-05-01T06:52:47.233Z,8.50
2023-05-01T06:55:36.004Z,9.10
2023-05-01T06:58:25.900Z,8.03
2023-05-01T07:01:14.449Z,7.30
2023-05-01T07:04:04.036Z,7.83
2023-05-01T07:06:52.666Z,8.00
2023-05-01T07:09:41.894Z,7.67
2023-05-01T07:12:30.657Z,7.77
2023-05-01T07:15:20.643Z,7.73
2023-05-01T07:18:09.252Z,8.60
2023-05-01T07:20:57.967Z,8.20
2023-05-01T07:23:46.697Z,7.20
2023-05-01T07:26:35.174Z,8.00
2023-05-01T07:29:23.788Z,7.40
2023-05-01T07:32:14.582Z,7.73
2023-05-01T07:35:03.682Z,7.93
2023-05-01T07:37:53.186Z,6.40
2023-05-01T07:40:42.075Z,6.87
2023-05-01T07:43:30.565Z,7.33
2023-05-01T07:46:19.173Z,7.50
2023-05-01T07:49:09.998Z,6.60
2023-05-01T07:51:58.489Z,7.00
2023-05-01T07:54:50.881Z,8.13
2023-05-01T07:57:39.692Z,7.57
2023-05-01T08:00:28.199Z,7.13
2023-05-01T08:03:16.885Z,8.40
2023-05-01T08:06:07.683Z,7.70
2023-05-01T08:08:56.317Z,7.63
2023-05-01T08:11:44.974Z,7.97
2023-05-01T08:14:33.420Z,7.33
2023-05-01T08:17:22.012Z,8.00
2023-05-01T08:20:12.257Z,7.17
2023-05-01T08:23:02.332Z,7.40
2023-05-01T08:25:52.664Z,7.93
2023-05-01T08:28:42.208Z,7.40
2023-05-01T08:31:31.150Z,8.10
2023-05-01T08:34:19.772Z,7.03
2023-05-01T08:37:08.379Z,7.40
2023-05-01T08:39:58.390Z,7.63
2023-05-01T08:42:48.009Z,8.00
2023-05-01T08:45:38.289Z,8.60
2023-05-01T08:48:27.408Z,8.00
2023-05-01T08:51:19.031Z,8.50
2023-05-01T08:54:09.094Z,8.10
2023-05-01T08:57:03.611Z,8.17
2023-05-01T08:59:53.477Z,9.23
2023-05-01T09:02:42.525Z,8.00
2023-05-01T09:05:34.069Z,8.57
2023-05-01T09:08:22.559Z,8.50
2023-05-01T09:11:12.863Z,8.50
2023-05-01T09:14:05.409Z,8.37
2023-05-01T09:16:54.235Z,8.10
2023-05-01T09:19:42.801Z,8.57
2023-05-01T09:22:31.699Z,9.30
2023-05-01T09:25:20.534Z,8.33
2023-05-01T09:28:09.084Z,9.20
2023-05-01T09:30:59.205Z,7.80
2023-05-01T09:33:53.042Z,8.60
2023-05-01T09:36:47.502Z,9.10
2023-05-01T09:39:37.139Z,8.20
2023-05-01T09:42:25.977Z,8.53
2023-05-01T09:45:15.544Z,9.37
2023-05-01T09:48:13.105Z,8.43
2023-05-01T09:51:01.676Z,9.40
2023-05-01T09:53:51.419Z,7.60
2023-05-01T09:56:48.553Z,7.40
2023-05-01T09:59:37.091Z,7.90
2023-05-01T10:02:34.465Z,6.70
2023-05-01T10:05:27.418Z,6.87
2023-05-01T10:08:16.271Z,8.23
2023-05-01T10:11:05.672Z,7.37
2023-05-01T10:14:08.673Z,7.10
2023-05-01T10:16:57.863Z,7.63
2023-05-01T10:19:47.070Z,6.90
2023-05-01T10:22:37.001Z,7.10
2023-05-01T10:25:26.640Z,7.23
2023-05-01T10:28:15.429Z,6.00
2023-05-01T10:31:04.613Z,6.63
2023-05-01T10:33:53.511Z,7.03
2023-05-01T10:36:46.012Z,6.40
2023-05-01T10:39:37.316Z,6.60
2023-05-01T10:42:26.209Z,7.00
2023-05-01T10:45:30.241Z,7.17
2023-05-01T10:48:52.338Z,7.10
2023-05-01T10:51:59.601Z,7.10
2023-05-01T10:54:49.423Z,7.20
2023-05-01T10:57:44.904Z,7.83
2023-05-01T11:00:34.355Z,7.40
2023-05-01T11:03:40.294Z,8.57
2023-05-01T11:06:29.285Z,6.93
2023-05-01T11:09:37.273Z,7.63
2023-05-01T11:12:52.416Z,7.30
2023-05-01T11:15:41.317Z,7.80
2023-05-01T11:18:47.648Z,7.30
2023-05-01T11:21:36.980Z,7.50
2023-05-01T11:24:32.870Z,7.20
2023-05-01T11:27:22.316Z,8.10
2023-05-01T11:30:14.185Z,8.23
2023-05-01T11:33:03.895Z,7.47
2023-05-01T11:36:02.509Z,6.83
2023-05-01T11:38:51.579Z,7.33
2023-05-01T11:41:40.315Z,6.80
2023-05-01T11:44:30.222Z,6.83
2023-05-01T11:47:20.157Z,6.27
2023-05-01T11:50:10.290Z,6.50
2023-05-01T11:52:58.844Z,6.10
2023-05-01T11:55:47.597Z,6.47
2023-05-01T11:58:36.863Z,6.30
2023-05-01T12:01:38.308Z,6.70
2023-05-01T12:04:32.380Z,6.57
2023-05-01T12:07:22.773Z,6.13
2023-05-01T12:10:11.869Z,5.77
2023-05-01T12:13:00.661Z,7.10
2023-05-01T12:15:50.510Z,5.87
2023-05-01T12:18:39.432Z,6.00
2023-05-01T12:21:29.469Z,7.77
2023-05-01T12:24:20.073Z,6.90
2023-05-01T12:27:09.201Z,6.90
2023-05-01T12:29:58.107Z,6.73
2023-05-01T12:32:46.700Z,6.40
2023-05-01T12:35:35.303Z,5.93
2023-05-01T12:38:25.322Z,6.20
2023-05-01T12:41:14.075Z,5.80
2023-05-01T12:44:02.967Z,5.10
2023-05-01T12:46:57.059Z,6.43
2023-05-01T12:49:45.813Z,6.80
2023-05-01T12:52:34.296Z,7.10
2023-05-01T12:55:24.490Z,6.87
2023-05-01T12:58:13.122Z,7.60
2023-05-01T13:01:01.844Z,7.13
2023-05-01T13:03:50.830Z,9.00
2023-05-01T13:06:39.448Z,8.50
2023-05-01T13:09:30.979Z,8.73
2023-05-01T13:12:20.968Z,9.73
2023-05-01T13:15:10.792Z,10.30
2023-05-01T13:18:05.517Z,8.77
2023-05-01T13:20:54.327Z,8.37
2023-05-01T13:23:44.346Z,9.07
2023-05-01T13:26:35.757Z,8.37
2023-05-01T13:29:26.843Z,9.03
2023-05-01T13:32:15.653Z,7.83
2023-05-01T13:35:04.719Z,8.70
2023-05-01T13:37:54.212Z,9.57
2023-05-01T13:40:42.919Z,8.63
2023-05-01T13:43:31.515Z,9.23
2023-05-01T13:46:24.613Z,9.20
2023-05-01T13:49:13.474Z,9.90
2023-05-01T13:52:02.072Z,9.43
2023-05-01T13:54:51.067Z,8.33
2023-05-01T13:57:40.526Z,8.60
2023-05-01T14:00:29.005Z,9.00
2023-05-01T14:03:19.350Z,7.97
2023-05-01T14:06:10.566Z,10.10
2023-05-01T14:08:59.891Z,7.53
2023-05-01T14:11:49.142Z,8.17
2023-05-01T14:14:37.840Z,9.60
2023-05-01T14:17:29.115Z,8.90
2023-05-01T14:20:19.095Z,9.53
2023-05-01T14:23:08.237Z,8.07
2023-05-01T14:25:57.023Z,8.33
2023-05-01T14:28:46.437Z,9.77
2023-05-01T14:31:35.273Z,10.00
2023-05-01T14:34:24.232Z,8.93
2023-05-01T14:37:15.113Z,8.53
2023-05-01T14:40:04.583Z,9.07
2023-05-01T14:42:53.921Z,8.77
2023-05-01T14:45:44.997Z,8.27
2023-05-01T14:48:39.491Z,7.70
2023-05-01T14:51:28.560Z,7.90
2023-05-01T14:54:18.918Z,7.70
2023-05-01T14:57:07.474Z,6.27
2023-05-01T14:59:56.027Z,7.13
2023-05-01T15:02:44.565Z,7.67
2023-05-01T15:05:34.350Z,7.23
2023-05-01T15:08:22.906Z,7.33
2023-05-01T15:11:14.033Z,7.80
2023-05-01T15:14:02.523Z,7.00
2023-05-01T15:16:51.592Z,6.90
2023-05-01T15:19:40.210Z,5.70
2023-05-01T15:22:28.677Z,4.60
2023-05-01T15:25:17.309Z,4.00
2023-05-01T15:28:07.246Z,5.53
2023-05-01T15:30:55.962Z,3.90
2023-05-01T15:33:45.015Z,3.17
2023-05-01T15:36:33.724Z,2.83
2023-05-01T15:39:22.236Z,2.97
2023-05-01T15:42:10.665Z,2.90
2023-05-01T15:45:02.375Z,2.83
2023-05-01T15:47:50.995Z,3.30
2023-05-01T15:50:39.466Z,3.40
2023-05-01T15:53:27.901Z,3.53
2023-05-01T15:56:16.424Z,4.40
2023-05-01T15:59:05.141Z,4.97
2023-05-01T16:01:55.453Z,3.60
2023-05-01T16:04:47.724Z,4.27
2023-05-01T16:07:36.248Z,4.27
2023-05-01T16:10:25.494Z,4.20
2023-05-01T16:13:14.311Z,4.67
2023-05-01T16:16:03.296Z,4.30
2023-05-01T16:18:56.564Z,5.47
2023-05-01T16:21:45.061Z,5.33
2023-05-01T16:24:33.664Z,5.23
2023-05-01T16:27:22.252Z,4.77
2023-05-01T16:30:11.943Z,5.33
2023-05-01T16:33:03.117Z,6.17
2023-05-01T16:35:53.092Z,5.00
2023-05-01T16:38:41.603Z,5.67
2023-05-01T16:41:30.207Z,4.67
2023-05-01T16:44:19.159Z,4.10
2023-05-01T16:47:07.703Z,3.57
2023-05-01T16:49:59.897Z,4.10
2023-05-01T16:52:50.450Z,5.70
2023-05-01T16:55:38.938Z,5.90
2023-05-01T16:58:27.822Z,6.60
2023-05-01T17:01:17.344Z,6.33
2023-05-01T17:04:06.308Z,6.67
2023-05-01T17:06:56.119Z,6.93
2023-05-01T17:09:46.118Z,6.83
2023-05-01T17:12:34.632Z,8.20
2023-05-01T17:15:23.150Z,7.53
2023-05-01T17:18:11.733Z,6.97
2023-05-01T17:21:00.315Z,7.90
2023-05-01T17:23:48.838Z,8.50
2023-05-01T17:26:38.803Z,8.17
2023-05-01T17:29:28.532Z,7.70
2023-05-01T17:32:33.138Z,7.27
2023-05-01T17:35:24.726Z,7.50
2023-05-01T17:38:13.212Z,8.33
2023-05-01T17:41:01.711Z,8.07
2023-05-01T17:43:51.636Z,7.27
2023-05-01T17:46:40.209Z,6.30
2023-05-01T17:49:28.677Z,5.37
2023-05-01T17:52:17.215Z,6.00
2023-05-01T17:55:06.637Z,6.10
2023-05-01T17:57:55.520Z,6.00
2023-05-01T18:00:45.557Z,6.47
2023-05-01T18:03:34.395Z,6.20
2023-05-01T18:06:23.206Z,7.10
2023-05-01T18:09:11.901Z,6.70
2023-05-01T18:12:00.537Z,6.30
2023-05-01T18:14:49.238Z,7.00
2023-05-01T18:17:39.123Z,6.90
2023-05-01T18:20:27.722Z,5.97
2023-05-01T18:23:16.873Z,6.37
2023-05-01T18:26:05.421Z,5.87
2023-05-01T18:28:54.034Z,6.10
2023-05-01T18:31:42.594Z,5.87
2023-05-01T18:34:32.484Z,5.43
2023-05-01T18:37:23.029Z,5.90
2023-05-01T18:40:12.568Z,5.47
2023-05-01T18:43:01.315Z,6.50
2023-05-01T18:45:49.817Z,5.67
2023-05-01T18:48:38.340Z,6.40
2023-05-01T18:51:28.400Z,6.80
2023-05-01T18:54:17.055Z,6.27
2023-05-01T18:57:05.912Z,6.60
2023-05-01T18:59:54.568Z,7.73
2023-05-01T19:02:43.183Z,6.17
2023-05-01T19:05:31.966Z,6.17
2023-05-01T19:08:21.883Z,15.77
2023-05-01T19:11:10.511Z,11.87
2023-05-01T19:13:59.276Z,10.10
2023-05-01T19:16:51.996Z,10.00
2023-05-01T19:19:40.514Z,8.63
2023-05-01T19:22:29.039Z,8.57
2023-05-01T19:25:19.716Z,8.27
2023-05-01T19:28:08.290Z,8.43
2023-05-01T19:30:56.829Z,7.97
2023-05-01T19:33:46.694Z,7.57
2023-05-01T19:36:35.273Z,7.97
2023-05-01T19:39:23.811Z,7.23
2023-05-01T19:42:13.784Z,7.90
2023-05-01T19:45:02.325Z,9.13
2023-05-01T19:47:50.893Z,8.50
2023-05-01T19:50:39.406Z,8.80
2023-05-01T19:53:28.295Z,7.17
2023-05-01T19:56:16.753Z,8.20
2023-05-01T19:59:06.542Z,9.13
2023-05-01T20:01:55.261Z,7.43
2023-05-01T20:04:44.300Z,7.60
2023-05-01T20:07:32.808Z,7.83
2023-05-01T20:10:21.354Z,7.97
2023-05-01T20:13:10.953Z,6.90
2023-05-01T20:16:02.854Z,7.67
2023-05-01T20:18:51.986Z,10.20
2023-05-01T20:21:40.481Z,8.40
2023-05-01T20:24:28.967Z,8.97
2023-05-01T20:27:17.425Z,9.00
2023-05-01T20:30:07.675Z,8.83
2023-05-01T20:32:57.738Z,9.97
2023-05-01T20:35:46.330Z,8.13
2023-05-01T20:38:35.095Z,8.00
2023-05-01T20:41:23.785Z,8.27
2023-05-01T20:44:12.265Z,7.87
2023-05-01T20:47:00.706Z,8.83
2023-05-01T20:49:50.495Z,8.07
2023-05-01T20:52:39.190Z,7.37
2023-05-01T20:55:28.047Z,8.20
2023-05-01T20:58:16.779Z,8.83
2023-05-01T21:01:06.597Z,9.03
2023-05-01T21:03:55.328Z,8.43
2023-05-01T21:06:45.455Z,7.43
2023-05-01T21:09:34.301Z,8.27
2023-05-01T21:12:23.132Z,8.17
2023-05-01T21:15:12.428Z,7.53
2023-05-01T21:18:01.185Z,7.47
2023-05-01T21:20:49.693Z,8.07
2023-05-01T21:23:41.539Z,7.77
2023-05-01T21:26:30.390Z,8.03
2023-05-01T21:29:19.369Z,7.90
2023-05-01T21:32:10.284Z,8.37
2023-05-01T21:34:58.908Z,8.63
2023-05-01T21:37:47.536Z,8.50
2023-05-01T21:40:38.982Z,8.70
2023-05-01T21:43:27.579Z,9.20
2023-05-01T21:46:17.699Z,8.83
2023-05-01T21:49:06.245Z,8.43
2023-05-01T21:51:55.399Z,9.80
2023-05-01T21:54:43.903Z,8.90
2023-05-01T21:57:33.836Z,8.70
2023-05-01T22:00:23.269Z,8.70
2023-05-01T22:03:12.348Z,9.40
2023-05-01T22:06:02.262Z,9.10
2023-05-01T22:08:51.199Z,9.10
2023-05-01T22:11:39.713Z,8.90
2023-05-01T22:14:40.233Z,8.10
2023-05-01T22:17:36.001Z,9.60
2023-05-01T22:20:24.857Z,9.53
2023-05-01T22:23:14.325Z,9.60
2023-05-01T22:26:02.814Z,9.00
2023-05-01T22:28:51.551Z,9.50
2023-05-01T22:31:41.502Z,9.47
2023-05-01T22:34:30.047Z,9.80
2023-05-01T22:37:18.954Z,8.90
2023-05-01T22:40:08.929Z,8.57
2023-05-01T22:42:57.409Z,9.60
2023-05-01T22:45:46.155Z,9.70
2023-05-01T22:48:36.164Z,8.07
2023-05-01T22:51:24.648Z,8.80
2023-05-01T22:54:13.147Z,9.13
2023-05-01T22:57:01.633Z,8.90
2023-05-01T22:59:50.162Z,8.80
2023-05-01T23:02:39.113Z,7.50
2023-05-01T23:05:29.266Z,6.70
2023-05-01T23:08:17.804Z,7.77
2023-05-01T23:11:06.517Z,6.93
2023-05-01T23:13:55.090Z,8.80
2023-05-01T23:16:43.713Z,7.67
2023-05-01T23:19:32.182Z,8.83
2023-05-01T23:22:23.117Z,7.37
2023-05-01T23:25:13.964Z,8.30
2023-05-01T23:28:03.222Z,8.23
2023-05-01T23:30:57.818Z,8.60
2023-05-01T23:33:46.342Z,10.00
2023-05-01T23:36:34.804Z,8.03
2023-05-01T23:39:24.731Z,8.60
2023-05-01T23:42:13.194Z,8.57
2023-05-01T23:45:01.637Z,10.27
2023-05-01T23:47:50.189Z,9.00
2023-05-01T23:50:38.919Z,10.57
2023-05-01T23:53:27.504Z,9.60
2023-05-01T23:56:17.373Z,9.40
2023-05-01T23:59:05.879Z,8.93
